createdAt,value
2019-01-30T00:01:01.599Z,3.30
2019-01-30T00:02:27.125Z,2.83
2019-01-30T00:03:53.061Z,3.98
2019-01-30T00:05:18.507Z,3.85
2019-01-30T00:06:43.909Z,3.75
2019-01-30T00:08:09.652Z,3.42
2019-01-30T00:09:35.098Z,3.17
2019-01-30T00:11:00.589Z,3.72
2019-01-30T00:12:26.409Z,3.27
2019-01-30T00:13:51.810Z,3.10
2019-01-30T00:15:17.640Z,3.90
2019-01-30T00:16:43.326Z,3.30
2019-01-30T00:18:08.857Z,2.77
2019-01-30T00:19:34.262Z,2.90
2019-01-30T00:20:59.815Z,2.67
2019-01-30T00:22:25.321Z,2.55
2019-01-30T00:23:50.777Z,3.05
2019-01-30T00:25:16.455Z,2.77
2019-01-30T00:26:41.986Z,2.15
2019-01-30T00:28:07.617Z,2.60
2019-01-30T00:29:33.093Z,2.87
2019-01-30T00:30:58.623Z,2.85
2019-01-30T00:32:24.165Z,3.45
2019-01-30T00:33:49.668Z,2.83
2019-01-30T00:35:15.466Z,2.30
2019-01-30T00:36:41.043Z,2.37
2019-01-30T00:38:06.737Z,2.42
2019-01-30T00:39:32.273Z,2.95
2019-01-30T00:40:57.860Z,2.22
2019-01-30T00:42:23.450Z,5.00
2019-01-30T00:43:49.104Z,4.00
2019-01-30T00:45:15.306Z,4.90
2019-01-30T00:46:41.030Z,5.35
2019-01-30T00:48:06.915Z,5.20
2019-01-30T00:49:32.449Z,6.95
2019-01-30T00:50:58.193Z,4.53
2019-01-30T00:52:23.652Z,3.00
2019-01-30T00:53:49.200Z,3.25
2019-01-30T00:55:15.039Z,4.15
2019-01-30T00:56:40.725Z,3.50
2019-01-30T00:58:06.985Z,4.55
2019-01-30T00:59:32.452Z,4.90
2019-01-30T01:00:58.417Z,4.40
2019-01-30T01:02:24.205Z,3.22
2019-01-30T01:03:49.939Z,4.10
2019-01-30T01:05:15.957Z,3.40
2019-01-30T01:06:41.550Z,2.72
2019-01-30T01:08:07.266Z,2.85
2019-01-30T01:09:32.785Z,3.12
2019-01-30T01:10:58.285Z,2.45
2019-01-30T01:12:23.785Z,2.33
2019-01-30T01:13:49.558Z,2.35
2019-01-30T01:15:16.401Z,2.87
2019-01-30T01:16:41.978Z,3.42
2019-01-30T01:18:07.818Z,2.72
2019-01-30T01:19:33.353Z,3.05
2019-01-30T01:20:58.950Z,2.22
2019-01-30T01:22:24.666Z,2.77
2019-01-30T01:23:50.219Z,2.67
2019-01-30T01:25:16.778Z,2.55
2019-01-30T01:26:42.484Z,2.92
2019-01-30T01:28:08.011Z,3.10
2019-01-30T01:29:36.025Z,5.10
2019-01-30T01:31:01.556Z,4.87
2019-01-30T01:32:27.168Z,5.78
2019-01-30T01:33:52.752Z,4.33
2019-01-30T01:35:18.526Z,4.90
2019-01-30T01:36:44.035Z,7.47
2019-01-30T01:38:09.838Z,5.90
2019-01-30T01:39:35.376Z,4.20
2019-01-30T01:41:01.023Z,3.02
2019-01-30T01:42:26.625Z,3.37
2019-01-30T01:43:52.206Z,4.25
2019-01-30T01:45:19.572Z,4.40
2019-01-30T01:46:45.207Z,4.03
2019-01-30T01:48:10.806Z,2.42
2019-01-30T01:49:36.353Z,2.25
2019-01-30T01:51:02.031Z,3.65
2019-01-30T01:52:27.653Z,2.98
2019-01-30T01:53:53.377Z,3.52
2019-01-30T01:55:19.203Z,2.92
2019-01-30T01:56:44.665Z,3.40
2019-01-30T01:58:10.163Z,3.30
2019-01-30T01:59:35.808Z,2.47
2019-01-30T02:01:01.552Z,2.60
2019-01-30T02:02:27.087Z,1.95
2019-01-30T02:03:52.600Z,2.65
2019-01-30T02:05:22.720Z,2.83
2019-01-30T02:06:48.410Z,2.58
2019-01-30T02:08:13.888Z,2.62
2019-01-30T02:09:39.493Z,2.58
2019-01-30T02:11:05.128Z,2.53
2019-01-30T02:12:30.593Z,2.85
2019-01-30T02:13:56.255Z,2.52
2019-01-30T02:15:22.967Z,2.50
2019-01-30T02:16:48.466Z,2.45
2019-01-30T02:18:14.080Z,2.85
2019-01-30T02:19:39.641Z,2.75
2019-01-30T02:21:05.250Z,3.10
2019-01-30T02:22:30.876Z,2.55
2019-01-30T02:23:56.730Z,2.10
2019-01-30T02:25:22.245Z,2.05
2019-01-30T02:26:47.930Z,2.25
2019-01-30T02:28:13.535Z,2.67
2019-01-30T02:29:39.039Z,2.15
2019-01-30T02:31:04.562Z,2.00
2019-01-30T02:32:30.230Z,1.80
2019-01-30T02:33:55.723Z,2.22
2019-01-30T02:35:21.540Z,2.08
2019-01-30T02:36:56.503Z,2.08
2019-01-30T02:38:22.102Z,2.47
2019-01-30T02:39:47.813Z,1.70
2019-01-30T02:41:13.319Z,1.85
2019-01-30T02:42:39.042Z,2.05
2019-01-30T02:44:04.894Z,1.95
2019-01-30T02:45:31.103Z,1.70
2019-01-30T02:46:56.641Z,1.90
2019-01-30T02:48:22.268Z,2.27
2019-01-30T02:49:47.889Z,1.90
2019-01-30T02:51:13.425Z,2.25
2019-01-30T02:52:39.000Z,1.70
2019-01-30T02:54:04.708Z,1.90
2019-01-30T02:55:30.199Z,2.30
2019-01-30T02:56:55.763Z,1.95
2019-01-30T02:58:21.275Z,2.05
2019-01-30T02:59:46.844Z,1.75
2019-01-30T03:01:12.357Z,1.80
2019-01-30T03:02:38.314Z,2.52
2019-01-30T03:04:03.894Z,1.80
2019-01-30T03:05:29.961Z,2.00
2019-01-30T03:06:55.454Z,2.05
2019-01-30T03:08:20.993Z,2.12
2019-01-30T03:09:46.456Z,1.90
2019-01-30T03:11:12.035Z,2.30
2019-01-30T03:12:37.536Z,2.00
2019-01-30T03:14:03.079Z,2.15
2019-01-30T03:15:28.805Z,1.70
2019-01-30T03:16:54.455Z,1.72
2019-01-30T03:18:20.089Z,2.00
2019-01-30T03:19:45.618Z,1.92
2019-01-30T03:21:11.173Z,1.67
2019-01-30T03:22:36.633Z,1.40
2019-01-30T03:24:02.491Z,1.82
2019-01-30T03:25:28.162Z,1.62
2019-01-30T03:26:53.691Z,1.70
2019-01-30T03:28:19.155Z,2.12
2019-01-30T03:29:44.659Z,1.95
2019-01-30T03:31:17.699Z,1.98
2019-01-30T03:32:37.439Z,2.33
2019-01-30T03:34:03.007Z,1.72
2019-01-30T03:35:28.765Z,2.08
2019-01-30T03:36:54.387Z,2.00
2019-01-30T03:38:19.960Z,2.00
2019-01-30T03:39:45.546Z,2.25
2019-01-30T03:41:11.248Z,1.95
2019-01-30T03:42:36.861Z,1.98
2019-01-30T03:44:02.406Z,2.15
2019-01-30T03:45:28.014Z,2.00
2019-01-30T03:46:53.709Z,1.95
2019-01-30T03:48:19.309Z,1.50
2019-01-30T03:49:44.890Z,1.55
2019-01-30T03:51:10.377Z,2.20
2019-01-30T03:52:36.008Z,2.50
2019-01-30T03:54:01.897Z,2.27
2019-01-30T03:55:27.641Z,2.22
2019-01-30T03:56:53.293Z,1.37
2019-01-30T03:58:19.028Z,2.37
2019-01-30T03:59:44.554Z,1.62
2019-01-30T04:01:10.046Z,1.60
2019-01-30T04:02:35.543Z,1.17
2019-01-30T04:04:01.060Z,2.35
2019-01-30T04:05:26.873Z,1.25
2019-01-30T04:06:52.461Z,1.50
2019-01-30T04:08:18.132Z,1.85
2019-01-30T04:09:43.590Z,1.37
2019-01-30T04:11:09.101Z,1.67
2019-01-30T04:12:34.757Z,2.00
2019-01-30T04:14:00.817Z,1.80
2019-01-30T04:15:26.682Z,1.82
2019-01-30T04:16:52.198Z,2.35
2019-01-30T04:18:17.800Z,1.85
2019-01-30T04:19:43.447Z,1.90
2019-01-30T04:21:09.091Z,1.82
2019-01-30T04:22:34.678Z,1.90
2019-01-30T04:24:00.152Z,2.00
2019-01-30T04:25:25.621Z,3.33
2019-01-30T04:26:51.132Z,2.40
2019-01-30T04:28:16.656Z,2.05
2019-01-30T04:29:42.158Z,1.80
2019-01-30T04:31:07.768Z,2.15
2019-01-30T04:32:33.435Z,1.72
2019-01-30T04:33:58.919Z,1.70
2019-01-30T04:35:24.503Z,2.30
2019-01-30T04:36:50.006Z,1.80
2019-01-30T04:38:15.566Z,1.98
2019-01-30T04:39:41.035Z,1.50
2019-01-30T04:41:06.829Z,2.10
2019-01-30T04:42:32.479Z,2.00
2019-01-30T04:43:58.203Z,1.65
2019-01-30T04:45:25.081Z,1.50
2019-01-30T04:46:50.680Z,1.55
2019-01-30T04:48:16.170Z,1.32
2019-01-30T04:49:41.685Z,1.75
2019-01-30T04:51:07.313Z,1.85
2019-01-30T04:52:32.946Z,1.30
2019-01-30T04:53:58.463Z,2.08
2019-01-30T04:55:24.157Z,1.90
2019-01-30T04:56:49.621Z,1.95
2019-01-30T04:58:15.104Z,2.10
2019-01-30T04:59:40.692Z,2.17
2019-01-30T05:01:06.779Z,1.20
2019-01-30T05:02:32.502Z,1.60
2019-01-30T05:03:58.105Z,1.85
2019-01-30T05:05:23.829Z,1.82
2019-01-30T05:06:49.302Z,2.00
2019-01-30T05:08:14.982Z,1.90
2019-01-30T05:09:40.656Z,1.85
2019-01-30T05:11:06.252Z,1.52
2019-01-30T05:12:31.794Z,1.82
2019-01-30T05:13:57.248Z,1.77
2019-01-30T05:15:22.847Z,2.02
2019-01-30T05:16:48.346Z,2.05
2019-01-30T05:18:13.826Z,1.72
2019-01-30T05:19:39.534Z,1.87
2019-01-30T05:21:05.152Z,1.75
2019-01-30T05:22:30.756Z,1.90
2019-01-30T05:23:56.282Z,1.40
2019-01-30T05:25:21.804Z,1.92
2019-01-30T05:26:47.504Z,1.65
2019-01-30T05:28:13.097Z,1.70
2019-01-30T05:29:38.601Z,1.80
2019-01-30T05:31:04.263Z,1.90
2019-01-30T05:32:29.778Z,1.85
2019-01-30T05:33:55.293Z,2.17
2019-01-30T05:35:20.954Z,1.90
2019-01-30T05:36:46.490Z,2.30
2019-01-30T05:38:12.060Z,2.45
2019-01-30T05:39:37.529Z,1.30
2019-01-30T05:41:03.103Z,2.02
2019-01-30T05:42:28.642Z,1.87
2019-01-30T05:43:54.367Z,2.12
2019-01-30T05:45:20.376Z,1.80
2019-01-30T05:46:45.874Z,1.82
2019-01-30T05:48:11.535Z,1.95
2019-01-30T05:49:37.086Z,2.10
2019-01-30T05:51:02.622Z,1.80
2019-01-30T05:52:28.555Z,1.85
2019-01-30T05:53:54.127Z,1.70
2019-01-30T05:55:19.816Z,2.22
2019-01-30T05:56:45.405Z,2.35
2019-01-30T05:58:11.009Z,2.20
2019-01-30T05:59:36.548Z,2.10
2019-01-30T06:01:02.162Z,2.62
2019-01-30T06:02:27.653Z,2.40
2019-01-30T06:03:53.157Z,2.30
2019-01-30T06:05:18.669Z,2.85
2019-01-30T06:06:44.282Z,1.60
2019-01-30T06:08:09.883Z,2.05
2019-01-30T06:09:36.826Z,1.70
2019-01-30T06:11:02.508Z,1.90
2019-01-30T06:12:28.034Z,2.00
2019-01-30T06:13:53.634Z,1.90
2019-01-30T06:15:19.453Z,2.50
2019-01-30T06:16:44.973Z,1.95
2019-01-30T06:18:10.579Z,2.15
2019-01-30T06:19:36.062Z,2.27
2019-01-30T06:21:01.672Z,3.05
2019-01-30T06:22:27.182Z,2.58
2019-01-30T06:23:52.796Z,2.12
2019-01-30T06:25:18.525Z,2.47
2019-01-30T06:26:44.048Z,1.75
2019-01-30T06:28:09.604Z,1.87
2019-01-30T06:29:35.202Z,1.60
2019-01-30T06:31:00.765Z,1.35
2019-01-30T06:32:26.425Z,1.92
2019-01-30T06:33:51.928Z,2.58
2019-01-30T06:35:17.620Z,2.00
2019-01-30T06:36:43.335Z,2.58
2019-01-30T06:38:09.050Z,1.50
2019-01-30T06:39:34.565Z,1.95
2019-01-30T06:41:00.064Z,2.10
2019-01-30T06:42:25.548Z,2.02
2019-01-30T06:43:51.059Z,2.62
2019-01-30T06:45:16.902Z,2.67
2019-01-30T06:46:42.657Z,2.77
2019-01-30T06:48:08.538Z,2.95
2019-01-30T06:49:34.061Z,2.45
2019-01-30T06:50:59.606Z,2.02
2019-01-30T06:52:25.109Z,2.22
2019-01-30T06:53:50.593Z,2.02
2019-01-30T06:55:16.254Z,2.60
2019-01-30T06:56:41.847Z,2.45
2019-01-30T06:58:07.410Z,2.77
2019-01-30T06:59:32.977Z,2.10
2019-01-30T07:00:58.875Z,2.58
2019-01-30T07:02:32.057Z,2.20
2019-01-30T07:03:51.759Z,3.15
2019-01-30T07:05:17.626Z,3.05
2019-01-30T07:06:43.155Z,2.45
2019-01-30T07:08:08.870Z,2.50
2019-01-30T07:09:34.433Z,2.65
2019-01-30T07:11:10.117Z,2.30
2019-01-30T07:12:27.192Z,2.72
2019-01-30T07:13:52.730Z,2.55
2019-01-30T07:15:18.541Z,2.33
2019-01-30T07:16:44.253Z,2.75
2019-01-30T07:18:09.861Z,2.58
2019-01-30T07:19:35.437Z,2.25
2019-01-30T07:21:01.040Z,2.25
2019-01-30T07:22:26.557Z,2.40
2019-01-30T07:23:52.174Z,2.35
2019-01-30T07:25:18.774Z,2.90
2019-01-30T07:26:44.300Z,3.33
2019-01-30T07:28:09.851Z,3.25
2019-01-30T07:29:35.405Z,2.70
2019-01-30T07:31:01.109Z,2.60
2019-01-30T07:32:26.715Z,3.15
2019-01-30T07:33:52.200Z,2.33
2019-01-30T07:35:17.774Z,2.72
2019-01-30T07:36:43.433Z,2.47
2019-01-30T07:38:09.171Z,3.35
2019-01-30T07:39:34.782Z,2.92
2019-01-30T07:41:00.280Z,2.80
2019-01-30T07:42:26.076Z,2.90
2019-01-30T07:43:51.729Z,3.80
2019-01-30T07:45:18.524Z,2.25
2019-01-30T07:46:44.326Z,2.20
2019-01-30T07:48:09.819Z,2.42
2019-01-30T07:49:36.487Z,3.60
2019-01-30T07:51:02.170Z,2.95
2019-01-30T07:52:27.857Z,3.80
2019-01-30T07:53:54.864Z,3.95
2019-01-30T07:55:20.782Z,3.27
2019-01-30T07:56:46.420Z,2.40
2019-01-30T07:58:12.034Z,3.00
2019-01-30T07:59:37.596Z,2.40
2019-01-30T08:01:03.184Z,2.00
2019-01-30T08:02:28.825Z,2.12
2019-01-30T08:03:54.498Z,2.65
2019-01-30T08:05:22.463Z,2.37
2019-01-30T08:06:47.366Z,2.55
2019-01-30T08:08:12.862Z,2.60
2019-01-30T08:09:38.394Z,2.70
2019-01-30T08:11:03.958Z,2.77
2019-01-30T08:12:29.454Z,2.30
2019-01-30T08:13:55.150Z,2.37
2019-01-30T08:15:20.953Z,2.42
2019-01-30T08:16:48.033Z,2.20
2019-01-30T08:18:13.826Z,2.60
2019-01-30T08:19:39.352Z,2.12
2019-01-30T08:21:04.929Z,2.62
2019-01-30T08:22:30.414Z,2.70
2019-01-30T08:23:55.930Z,2.42
2019-01-30T08:25:23.131Z,1.85
2019-01-30T08:26:48.973Z,2.83
2019-01-30T08:28:15.922Z,3.12
2019-01-30T08:29:41.698Z,2.77
2019-01-30T08:31:07.406Z,3.33
2019-01-30T08:32:33.182Z,3.02
2019-01-30T08:33:58.777Z,2.58
2019-01-30T08:35:25.369Z,2.22
2019-01-30T08:36:50.851Z,2.58
2019-01-30T08:38:16.518Z,2.50
2019-01-30T08:39:42.009Z,2.87
2019-01-30T08:41:07.629Z,2.25
2019-01-30T08:42:33.154Z,2.72
2019-01-30T08:43:58.729Z,2.20
2019-01-30T08:45:26.566Z,2.58
2019-01-30T08:46:52.102Z,2.92
2019-01-30T08:48:17.824Z,2.30
2019-01-30T08:49:43.335Z,3.55
2019-01-30T08:51:09.049Z,2.58
2019-01-30T08:52:34.731Z,4.65
2019-01-30T08:54:00.224Z,3.95
2019-01-30T08:55:25.955Z,4.28
2019-01-30T08:56:52.939Z,5.00
2019-01-30T08:58:18.653Z,3.15
2019-01-30T08:59:44.292Z,3.00
2019-01-30T09:01:09.794Z,2.70
2019-01-30T09:02:35.334Z,2.27
2019-01-30T09:04:00.912Z,2.98
2019-01-30T09:05:26.700Z,3.60
2019-01-30T09:06:52.157Z,3.80
2019-01-30T09:08:17.825Z,2.90
2019-01-30T09:09:43.312Z,2.98
2019-01-30T09:11:09.049Z,2.90
2019-01-30T09:12:34.660Z,2.50
2019-01-30T09:14:00.169Z,3.83
2019-01-30T09:15:26.574Z,2.60
2019-01-30T09:16:52.172Z,2.50
2019-01-30T09:18:17.964Z,2.35
2019-01-30T09:19:43.533Z,3.17
2019-01-30T09:21:09.165Z,2.87
2019-01-30T09:22:34.806Z,2.20
2019-01-30T09:24:00.300Z,2.47
2019-01-30T09:25:27.989Z,2.60
2019-01-30T09:26:53.504Z,2.47
2019-01-30T09:28:19.206Z,2.30
2019-01-30T09:29:44.684Z,2.15
2019-01-30T09:31:10.241Z,3.10
2019-01-30T09:32:35.832Z,2.93
2019-01-30T09:34:01.450Z,2.30
2019-01-30T09:35:27.231Z,2.27
2019-01-30T09:36:52.765Z,2.15
2019-01-30T09:38:18.550Z,2.70
2019-01-30T09:39:44.140Z,2.10
2019-01-30T09:41:09.647Z,2.17
2019-01-30T09:42:35.289Z,1.77
2019-01-30T09:44:00.856Z,2.22
2019-01-30T09:45:26.587Z,3.02
2019-01-30T09:46:52.217Z,2.73
2019-01-30T09:48:17.768Z,2.42
2019-01-30T09:49:43.405Z,2.25
2019-01-30T09:51:08.900Z,1.98
2019-01-30T09:52:34.673Z,3.37
2019-01-30T09:54:00.207Z,2.67
2019-01-30T09:55:25.838Z,2.93
2019-01-30T09:56:51.384Z,3.10
2019-01-30T09:58:17.155Z,3.57
2019-01-30T09:59:42.654Z,2.60
2019-01-30T10:01:08.242Z,2.00
2019-01-30T10:02:33.825Z,2.90
2019-01-30T10:03:59.297Z,1.80
2019-01-30T10:05:25.187Z,2.37
2019-01-30T10:06:50.781Z,2.80
2019-01-30T10:08:16.352Z,2.33
2019-01-30T10:09:41.825Z,1.80
2019-01-30T10:11:07.526Z,1.50
2019-01-30T10:12:33.070Z,2.07
2019-01-30T10:13:58.578Z,2.13
2019-01-30T10:15:26.062Z,2.17
2019-01-30T10:16:51.707Z,2.33
2019-01-30T10:18:17.461Z,2.10
2019-01-30T10:19:42.928Z,2.57
2019-01-30T10:21:08.646Z,2.33
2019-01-30T10:22:34.178Z,2.27
2019-01-30T10:23:59.669Z,1.63
2019-01-30T10:25:25.370Z,2.20
2019-01-30T10:26:51.011Z,2.40
2019-01-30T10:28:17.186Z,1.40
2019-01-30T10:29:42.874Z,2.10
2019-01-30T10:31:08.582Z,2.37
2019-01-30T10:32:34.206Z,1.83
2019-01-30T10:33:59.730Z,2.47
2019-01-30T10:35:25.315Z,1.97
2019-01-30T10:36:51.029Z,2.00
2019-01-30T10:38:16.987Z,1.93
2019-01-30T10:39:42.531Z,1.60
2019-01-30T10:41:08.214Z,1.40
2019-01-30T10:42:33.826Z,1.60
2019-01-30T10:43:59.486Z,2.13
2019-01-30T10:45:25.265Z,1.90
2019-01-30T10:46:50.854Z,1.77
2019-01-30T10:48:16.569Z,2.13
2019-01-30T10:49:42.364Z,1.80
2019-01-30T10:51:07.985Z,2.23
2019-01-30T10:52:33.487Z,2.58
2019-01-30T10:53:59.070Z,2.57
2019-01-30T10:55:26.293Z,2.73
2019-01-30T10:56:51.928Z,2.07
2019-01-30T10:58:18.987Z,2.10
2019-01-30T10:59:44.556Z,2.60
2019-01-30T11:01:10.160Z,1.97
2019-01-30T11:02:35.792Z,2.37
2019-01-30T11:04:01.414Z,2.50
2019-01-30T11:05:27.097Z,2.80
2019-01-30T11:06:52.715Z,1.53
2019-01-30T11:08:18.349Z,2.00
2019-01-30T11:09:43.929Z,1.80
2019-01-30T11:11:09.467Z,1.77
2019-01-30T11:12:35.170Z,1.70
2019-01-30T11:14:23.013Z,2.10
2019-01-30T11:15:48.757Z,2.10
2019-01-30T11:17:14.270Z,1.90
2019-01-30T11:18:39.967Z,1.90
2019-01-30T11:20:06.991Z,2.07
2019-01-30T11:21:32.549Z,1.90
2019-01-30T11:22:58.177Z,2.50
2019-01-30T11:24:32.835Z,2.30
2019-01-30T11:25:57.657Z,2.30
2019-01-30T11:27:23.190Z,1.87
2019-01-30T11:28:48.857Z,1.67
2019-01-30T11:30:14.888Z,1.40
2019-01-30T11:31:40.336Z,2.40
2019-01-30T11:33:06.100Z,1.90
2019-01-30T11:34:31.731Z,1.53
2019-01-30T11:35:57.313Z,1.80
2019-01-30T11:37:23.032Z,1.90
2019-01-30T11:38:48.632Z,1.73
2019-01-30T11:40:15.384Z,2.40
2019-01-30T11:41:41.071Z,2.30
2019-01-30T11:43:06.681Z,3.20
2019-01-30T11:44:32.161Z,2.60
2019-01-30T11:45:57.780Z,1.83
2019-01-30T11:47:23.407Z,2.43
2019-01-30T11:48:56.240Z,3.10
2019-01-30T11:50:16.389Z,2.30
2019-01-30T11:51:42.272Z,1.70
2019-01-30T11:53:07.906Z,2.10
2019-01-30T11:54:38.861Z,2.20
2019-01-30T11:56:00.680Z,2.00
2019-01-30T11:57:26.164Z,2.13
2019-01-30T11:58:51.720Z,2.10
2019-01-30T12:00:25.872Z,2.33
2019-01-30T12:01:51.534Z,2.07
2019-01-30T12:03:17.150Z,2.30
2019-01-30T12:04:42.661Z,2.70
2019-01-30T12:06:08.298Z,2.70
2019-01-30T12:07:33.828Z,3.80
2019-01-30T12:08:59.334Z,2.67
2019-01-30T12:10:25.043Z,3.00
2019-01-30T12:11:50.592Z,3.83
2019-01-30T12:13:16.190Z,3.23
2019-01-30T12:14:41.789Z,3.20
2019-01-30T12:16:07.400Z,3.30
2019-01-30T12:17:32.972Z,2.23
2019-01-30T12:18:58.472Z,3.50
2019-01-30T12:20:24.246Z,3.10
2019-01-30T12:21:49.862Z,3.30
2019-01-30T12:23:15.636Z,3.00
2019-01-30T12:24:41.246Z,3.30
2019-01-30T12:26:06.921Z,3.10
2019-01-30T12:27:32.455Z,2.30
2019-01-30T12:28:57.941Z,3.20
2019-01-30T12:30:24.906Z,3.00
2019-01-30T12:31:50.606Z,2.70
2019-01-30T12:33:16.194Z,3.40
2019-01-30T12:34:41.969Z,2.33
2019-01-30T12:36:07.714Z,2.20
2019-01-30T12:37:33.350Z,2.13
2019-01-30T12:38:58.843Z,2.37
2019-01-30T12:40:24.573Z,2.27
2019-01-30T12:41:50.212Z,2.33
2019-01-30T12:43:16.026Z,2.37
2019-01-30T12:44:41.612Z,3.10
2019-01-30T12:46:07.192Z,2.80
2019-01-30T12:47:32.894Z,1.63
2019-01-30T12:48:58.410Z,2.23
2019-01-30T12:50:24.569Z,2.00
2019-01-30T12:51:50.229Z,2.13
2019-01-30T12:53:15.876Z,2.07
2019-01-30T12:54:41.545Z,2.00
2019-01-30T12:56:07.122Z,1.50
2019-01-30T12:57:32.755Z,1.60
2019-01-30T12:58:58.237Z,1.87
2019-01-30T13:00:29.221Z,1.57
2019-01-30T13:01:54.774Z,1.90
2019-01-30T13:03:20.282Z,1.53
2019-01-30T13:04:45.954Z,1.40
2019-01-30T13:06:11.481Z,2.10
2019-01-30T13:07:37.078Z,2.30
2019-01-30T13:09:02.677Z,2.03
2019-01-30T13:10:28.379Z,2.23
2019-01-30T13:11:53.872Z,1.60
2019-01-30T13:13:19.532Z,2.13
2019-01-30T13:14:45.190Z,1.20
2019-01-30T13:16:10.884Z,1.73
2019-01-30T13:17:36.400Z,2.63
2019-01-30T13:19:01.895Z,3.33
2019-01-30T13:20:27.589Z,2.57
2019-01-30T13:21:53.222Z,3.57
2019-01-30T13:23:18.882Z,2.10
2019-01-30T13:24:47.153Z,2.77
2019-01-30T13:26:12.777Z,1.90
2019-01-30T13:27:38.624Z,2.33
2019-01-30T13:29:04.374Z,1.60
2019-01-30T13:30:34.425Z,2.70
2019-01-30T13:32:00.050Z,2.57
2019-01-30T13:33:25.706Z,2.93
2019-01-30T13:34:51.336Z,3.00
2019-01-30T13:36:17.059Z,2.90
2019-01-30T13:37:42.728Z,2.60
2019-01-30T13:39:10.117Z,3.60
2019-01-30T13:40:37.984Z,3.90
2019-01-30T13:42:03.513Z,2.90
2019-01-30T13:43:29.112Z,3.00
2019-01-30T13:44:54.682Z,3.30
2019-01-30T13:46:20.314Z,3.23
2019-01-30T13:47:46.009Z,2.40
2019-01-30T13:49:11.670Z,2.20
2019-01-30T13:50:37.336Z,3.50
2019-01-30T13:52:03.022Z,2.93
2019-01-30T13:53:28.640Z,3.13
2019-01-30T13:54:54.263Z,3.90
2019-01-30T13:56:21.235Z,2.93
2019-01-30T13:57:46.730Z,2.03
2019-01-30T13:59:12.368Z,2.30
2019-01-30T14:00:39.493Z,2.87
2019-01-30T14:02:05.406Z,3.40
2019-01-30T14:03:30.949Z,3.10
2019-01-30T14:04:59.563Z,2.27
2019-01-30T14:06:23.764Z,2.17
2019-01-30T14:07:50.152Z,1.97
2019-01-30T14:09:20.620Z,2.37
2019-01-30T14:10:46.293Z,1.87
2019-01-30T14:12:12.007Z,1.60
2019-01-30T14:13:37.568Z,2.33
2019-01-30T14:15:03.154Z,2.00
2019-01-30T14:16:28.836Z,1.57
2019-01-30T14:17:54.565Z,1.55
2019-01-30T14:19:20.644Z,1.20
2019-01-30T14:20:46.477Z,1.23
2019-01-30T14:22:12.083Z,1.20
2019-01-30T14:23:37.595Z,1.70
2019-01-30T14:25:03.244Z,1.37
2019-01-30T14:26:28.680Z,1.67
2019-01-30T14:27:54.473Z,2.27
2019-01-30T14:29:20.057Z,1.10
2019-01-30T14:30:45.770Z,0.93
2019-01-30T14:32:11.322Z,2.20
2019-01-30T14:33:36.822Z,2.10
2019-01-30T14:35:10.586Z,1.52
2019-01-30T14:36:29.707Z,1.87
2019-01-30T14:37:55.308Z,1.90
2019-01-30T14:39:20.907Z,1.27
2019-01-30T14:40:46.602Z,1.43
2019-01-30T14:42:12.320Z,1.03
2019-01-30T14:43:37.807Z,1.53
2019-01-30T14:45:03.427Z,1.70
2019-01-30T14:46:29.036Z,2.00
2019-01-30T14:47:54.767Z,2.20
2019-01-30T14:49:20.424Z,1.83
2019-01-30T14:50:46.128Z,1.90
2019-01-30T14:52:13.105Z,2.10
2019-01-30T14:53:38.691Z,3.00
2019-01-30T14:55:04.855Z,2.53
2019-01-30T14:56:30.484Z,2.80
2019-01-30T14:57:56.284Z,2.50
2019-01-30T14:59:21.934Z,2.80
2019-01-30T15:00:47.502Z,3.43
2019-01-30T15:02:17.540Z,2.57
2019-01-30T15:03:43.074Z,3.73
2019-01-30T15:05:21.544Z,2.50
2019-01-30T15:06:37.919Z,3.40
2019-01-30T15:08:06.041Z,3.37
2019-01-30T15:09:31.676Z,2.77
2019-01-30T15:10:57.351Z,4.20
2019-01-30T15:12:23.043Z,2.73
2019-01-30T15:13:48.636Z,3.07
2019-01-30T15:15:16.485Z,2.70
2019-01-30T15:16:42.070Z,2.60
2019-01-30T15:18:08.819Z,2.57
2019-01-30T15:19:34.490Z,2.87
2019-01-30T15:21:00.136Z,3.33
2019-01-30T15:22:25.693Z,2.37
2019-01-30T15:23:51.223Z,3.10
2019-01-30T15:25:18.052Z,3.00
2019-01-30T15:26:43.686Z,3.00
2019-01-30T15:28:09.689Z,2.60
2019-01-30T15:29:35.222Z,2.27
2019-01-30T15:31:00.922Z,2.77
2019-01-30T15:32:26.571Z,2.67
2019-01-30T15:33:52.157Z,2.70
2019-01-30T15:35:17.866Z,2.47
2019-01-30T15:36:43.396Z,2.90
2019-01-30T15:38:13.292Z,3.50
2019-01-30T15:39:39.122Z,2.80
2019-01-30T15:41:04.968Z,2.33
2019-01-30T15:42:30.621Z,3.40
2019-01-30T15:43:56.345Z,2.80
2019-01-30T15:45:22.692Z,2.50
2019-01-30T15:46:48.306Z,2.80
2019-01-30T15:48:13.912Z,2.25
2019-01-30T15:49:39.480Z,2.60
2019-01-30T15:51:05.195Z,2.20
2019-01-30T15:52:30.708Z,2.13
2019-01-30T15:53:56.297Z,1.93
2019-01-30T15:55:22.366Z,2.17
2019-01-30T15:56:47.907Z,2.20
2019-01-30T15:58:13.797Z,2.50
2019-01-30T15:59:39.368Z,2.57
2019-01-30T16:01:12.538Z,2.20
2019-01-30T16:02:38.248Z,2.67
2019-01-30T16:04:06.082Z,2.73
2019-01-30T16:05:31.061Z,2.80
2019-01-30T16:06:56.682Z,2.93
2019-01-30T16:08:22.413Z,3.60
2019-01-30T16:09:47.966Z,3.50
2019-01-30T16:11:13.518Z,3.33
2019-01-30T16:12:39.044Z,4.30
2019-01-30T16:14:04.898Z,4.33
2019-01-30T16:15:33.866Z,3.90
2019-01-30T16:16:59.589Z,4.70
2019-01-30T16:18:25.890Z,3.50
2019-01-30T16:19:51.424Z,4.20
2019-01-30T16:21:17.049Z,3.20
2019-01-30T16:22:42.883Z,3.17
2019-01-30T16:24:08.540Z,3.23
2019-01-30T16:25:34.183Z,3.97
2019-01-30T16:26:59.820Z,4.53
2019-01-30T16:28:28.131Z,4.80
2019-01-30T16:29:53.933Z,3.83
2019-01-30T16:31:19.561Z,3.67
2019-01-30T16:32:48.607Z,3.83
2019-01-30T16:34:14.589Z,3.93
2019-01-30T16:35:40.401Z,4.20
2019-01-30T16:37:06.610Z,3.60
2019-01-30T16:38:32.495Z,3.33
2019-01-30T16:39:58.146Z,3.33
2019-01-30T16:41:23.900Z,3.70
2019-01-30T16:42:49.766Z,2.70
2019-01-30T16:44:15.437Z,4.30
2019-01-30T16:45:41.191Z,2.80
2019-01-30T16:47:06.910Z,3.43
2019-01-30T16:48:32.540Z,3.67
2019-01-30T16:49:58.209Z,3.83
2019-01-30T16:51:23.774Z,4.43
2019-01-30T16:52:49.514Z,3.70
2019-01-30T16:54:15.136Z,3.77
2019-01-30T16:55:40.877Z,4.20
2019-01-30T16:57:06.608Z,3.50
2019-01-30T16:58:34.041Z,4.23
2019-01-30T16:59:59.731Z,3.50
2019-01-30T17:01:25.525Z,3.70
2019-01-30T17:02:50.989Z,4.40
2019-01-30T17:04:16.641Z,3.90
2019-01-30T17:05:42.381Z,3.03
2019-01-30T17:07:08.042Z,4.17
2019-01-30T17:08:36.634Z,5.30
2019-01-30T17:10:02.296Z,4.40
2019-01-30T17:11:27.802Z,4.07
2019-01-30T17:12:53.459Z,4.17
2019-01-30T17:14:19.185Z,3.90
2019-01-30T17:15:44.789Z,4.00
2019-01-30T17:17:10.432Z,3.70
2019-01-30T17:18:36.049Z,3.63
2019-01-30T17:20:01.626Z,3.70
2019-01-30T17:21:27.152Z,3.57
2019-01-30T17:22:52.894Z,3.93
2019-01-30T17:24:18.430Z,4.50
2019-01-30T17:25:44.326Z,4.73
2019-01-30T17:27:09.909Z,4.67
2019-01-30T17:28:35.520Z,3.87
2019-01-30T17:30:01.205Z,4.33
2019-01-30T17:31:31.738Z,4.30
2019-01-30T17:32:57.448Z,4.10
2019-01-30T17:34:23.346Z,4.70
2019-01-30T17:35:49.135Z,4.40
2019-01-30T17:37:14.636Z,4.30
2019-01-30T17:38:40.189Z,4.07
2019-01-30T17:40:07.695Z,3.43
2019-01-30T17:41:33.349Z,3.77
2019-01-30T17:42:59.118Z,3.90
2019-01-30T17:44:24.729Z,3.90
2019-01-30T17:45:50.456Z,4.00
2019-01-30T17:47:17.297Z,4.60
2019-01-30T17:48:42.816Z,4.43
2019-01-30T17:50:09.882Z,4.70
2019-01-30T17:51:35.545Z,4.83
2019-01-30T17:53:01.195Z,3.90
2019-01-30T17:54:26.902Z,5.07
2019-01-30T17:55:52.487Z,3.43
2019-01-30T17:57:18.141Z,4.03
2019-01-30T17:58:43.786Z,4.17
2019-01-30T18:00:19.203Z,3.67
2019-01-30T18:01:44.823Z,3.67
2019-01-30T18:03:10.601Z,3.67
2019-01-30T18:04:36.225Z,4.13
2019-01-30T18:06:02.316Z,4.20
2019-01-30T18:07:27.980Z,3.23
2019-01-30T18:08:53.537Z,4.53
2019-01-30T18:10:19.375Z,4.67
2019-01-30T18:11:45.147Z,4.97
2019-01-30T18:13:10.910Z,5.63
2019-01-30T18:14:36.473Z,5.10
2019-01-30T18:16:02.250Z,5.07
2019-01-30T18:17:27.859Z,4.20
2019-01-30T18:18:54.920Z,5.73
2019-01-30T18:20:20.584Z,4.80
2019-01-30T18:21:46.223Z,5.43
2019-01-30T18:23:12.027Z,5.30
2019-01-30T18:24:37.637Z,4.27
2019-01-30T18:26:03.259Z,4.10
2019-01-30T18:27:29.018Z,5.37
2019-01-30T18:28:54.491Z,5.10
2019-01-30T18:30:20.324Z,4.93
2019-01-30T18:31:46.124Z,5.17
2019-01-30T18:33:18.180Z,5.42
2019-01-30T18:34:53.498Z,5.40
2019-01-30T18:36:19.174Z,4.57
2019-01-30T18:37:44.813Z,6.20
2019-01-30T18:39:11.100Z,5.23
2019-01-30T18:40:38.148Z,4.90
2019-01-30T18:42:03.734Z,6.97
2019-01-30T18:43:32.110Z,7.80
2019-01-30T18:44:57.934Z,7.40
2019-01-30T18:46:23.551Z,8.90
2019-01-30T18:47:49.063Z,10.50
2019-01-30T18:49:14.667Z,7.27
2019-01-30T18:50:40.494Z,9.87
2019-01-30T18:52:06.438Z,8.60
2019-01-30T18:53:31.993Z,7.23
2019-01-30T18:54:57.514Z,7.50
2019-01-30T18:56:23.325Z,8.27
2019-01-30T18:57:49.513Z,6.07
2019-01-30T18:59:15.078Z,5.87
2019-01-30T19:00:42.993Z,6.53
2019-01-30T19:02:08.581Z,4.73
2019-01-30T19:03:34.146Z,3.70